createdAt,value
2022-11-24T00:29:08.720Z,-0.58
2022-11-24T00:32:36.987Z,-0.51
2022-11-24T00:35:40.434Z,-0.47
2022-11-24T00:39:41.553Z,-0.56
2022-11-24T00:42:45.355Z,-0.62
2022-11-24T00:45:48.912Z,-0.56
2022-11-24T00:48:55.065Z,-0.61
2022-11-24T00:51:58.972Z,-0.74
2022-11-24T00:56:27.249Z,-0.60
2022-11-24T01:26:15.475Z,-0.64
2022-11-24T01:33:30.180Z,-0.63
2022-11-24T01:36:32.796Z,-0.70
2022-11-24T01:39:36.319Z,-0.62
2022-11-24T01:42:50.764Z,-0.59
2022-11-24T01:45:54.812Z,-0.62
2022-11-24T01:49:13.718Z,-0.58
2022-11-24T01:52:22.533Z,-0.68
2022-11-24T01:55:32.914Z,-0.76
2022-11-24T01:58:41.291Z,-0.65
2022-11-24T02:01:44.314Z,-0.77
2022-11-24T02:05:20.406Z,-0.71
2022-11-24T02:08:42.365Z,-0.77
2022-11-24T02:20:18.583Z,-0.68
2022-11-24T02:20:21.777Z,-0.67
2022-11-24T02:23:50.265Z,-0.72
2022-11-24T02:26:53.131Z,-0.78
2022-11-24T02:29:56.564Z,-0.81
2022-11-24T02:32:59.560Z,-0.86
2022-11-24T02:36:02.770Z,-0.81
2022-11-24T02:39:15.545Z,-0.78
2022-11-24T02:42:18.745Z,-0.77
2022-11-24T02:45:22.397Z,-0.75
2022-11-24T02:48:25.414Z,-0.71
2022-11-24T02:51:28.661Z,-0.81
2022-11-24T02:54:32.063Z,-0.85
2022-11-24T02:57:34.910Z,-0.80
2022-11-24T03:00:38.033Z,-0.78
2022-11-24T03:03:40.484Z,-0.68
2022-11-24T03:06:44.670Z,-0.63
2022-11-24T03:09:47.584Z,-0.59
2022-11-24T03:12:50.592Z,-0.61
2022-11-24T03:15:53.602Z,-0.68
2022-11-24T03:18:56.673Z,-0.62
2022-11-24T03:21:59.994Z,-0.52
2022-11-24T03:25:03.154Z,-0.45
2022-11-24T03:28:08.244Z,-0.42
2022-11-24T03:31:12.343Z,-0.47
2022-11-24T03:34:15.070Z,-0.45
2022-11-24T03:37:18.076Z,-0.38
2022-11-24T03:40:20.884Z,-0.35
2022-11-24T03:43:23.891Z,-0.28
2022-11-24T03:46:27.794Z,-0.28
2022-11-24T03:49:30.855Z,-0.21
2022-11-24T03:52:33.526Z,-0.16
2022-11-24T03:55:36.307Z,-0.18
2022-11-24T03:58:38.819Z,-0.19
2022-11-24T04:01:41.999Z,-0.11
2022-11-24T04:04:49.836Z,-0.14
2022-11-24T04:07:56.777Z,-0.07
2022-11-24T04:10:59.598Z,-0.07
2022-11-24T04:14:02.474Z,-0.07
2022-11-24T04:17:05.460Z,0.01
2022-11-24T04:20:09.309Z,0.01
2022-11-24T04:23:11.985Z,0.01
2022-11-24T04:26:16.195Z,-0.04
2022-11-24T04:29:19.011Z,-0.10
2022-11-24T04:32:22.080Z,-0.06
2022-11-24T04:35:25.234Z,-0.10
2022-11-24T04:39:23.057Z,-0.10
2022-11-24T04:42:36.870Z,-0.18
2022-11-24T04:46:18.421Z,-0.21
2022-11-24T05:04:28.140Z,-0.10
2022-11-24T05:07:31.323Z,-0.04
2022-11-24T05:10:38.261Z,0.00
2022-11-24T05:13:41.395Z,0.03
2022-11-24T05:16:44.649Z,0.05
2022-11-24T05:19:47.279Z,0.04
2022-11-24T05:22:50.688Z,0.04
2022-11-24T05:25:53.297Z,0.07
2022-11-24T05:28:56.479Z,0.09
2022-11-24T05:31:59.231Z,0.07
2022-11-24T05:35:02.671Z,0.09
2022-11-24T05:38:05.214Z,0.05
2022-11-24T05:41:08.969Z,0.13
2022-11-24T05:44:11.749Z,0.10
2022-11-24T05:47:14.887Z,0.17
2022-11-24T05:50:19.740Z,0.16
2022-11-24T05:53:23.604Z,0.16
2022-11-24T05:56:26.343Z,0.13
2022-11-24T05:59:29.479Z,0.09
2022-11-24T06:02:32.636Z,0.15
2022-11-24T06:05:36.484Z,0.13
2022-11-24T06:09:13.627Z,0.11
2022-11-24T06:12:48.490Z,0.15
2022-11-24T06:22:19.940Z,0.17
2022-11-24T06:38:04.632Z,0.01
2022-11-24T06:41:19.436Z,0.02
2022-11-24T06:44:40.208Z,-0.06
2022-11-24T06:47:43.074Z,0.02
2022-11-24T06:50:45.524Z,0.06
2022-11-24T06:53:48.518Z,0.15
2022-11-24T06:56:56.661Z,0.24
2022-11-24T06:59:59.604Z,0.26
2022-11-24T07:03:02.313Z,0.23
2022-11-24T07:06:05.780Z,0.16
2022-11-24T07:09:10.200Z,0.20
2022-11-24T07:12:13.352Z,0.20
2022-11-24T07:15:16.824Z,0.26
2022-11-24T07:18:20.154Z,0.24
2022-11-24T08:04:12.240Z,0.43
2022-11-24T08:12:29.797Z,0.44
2022-11-24T08:15:35.085Z,0.44
2022-11-24T08:18:39.081Z,0.49
2022-11-24T08:21:44.257Z,0.40
2022-11-24T09:32:12.501Z,0.62
2022-11-24T09:35:15.534Z,0.68
2022-11-24T11:06:38.969Z,0.81
2022-11-24T12:39:08.421Z,0.87
2022-11-24T12:42:59.998Z,0.68
2022-11-24T17:01:46.856Z,0.91
2022-11-24T17:04:52.254Z,0.92
2022-11-24T17:07:54.694Z,0.90
2022-11-24T17:10:56.898Z,0.89
2022-11-24T17:13:59.373Z,0.96
2022-11-24T17:17:01.708Z,0.97
2022-11-24T17:20:05.115Z,0.96
2022-11-24T17:23:07.356Z,0.95
2022-11-24T17:26:17.438Z,0.93
2022-11-24T17:29:20.006Z,0.91
2022-11-24T17:32:22.528Z,0.92
2022-11-24T17:35:24.587Z,0.89
2022-11-24T17:38:28.302Z,0.86
2022-11-24T17:41:31.023Z,0.85
2022-11-24T17:44:33.837Z,0.80
2022-11-24T17:47:36.166Z,0.77
2022-11-24T17:50:38.487Z,0.76
2022-11-24T17:53:42.582Z,0.76
2022-11-24T17:56:45.965Z,0.79
2022-11-24T17:59:48.130Z,0.77
2022-11-24T18:02:50.610Z,0.71
2022-11-24T18:05:53.007Z,0.86
2022-11-24T18:08:58.763Z,0.83
2022-11-24T18:12:01.031Z,0.85
2022-11-24T18:15:03.774Z,0.82
2022-11-24T18:18:05.910Z,0.78
2022-11-24T18:21:15.103Z,0.82
2022-11-24T18:24:22.548Z,0.84
2022-11-24T18:27:26.467Z,0.87
2022-11-24T18:30:28.583Z,0.79
2022-11-24T18:33:31.141Z,0.81
2022-11-24T18:36:34.564Z,0.82
2022-11-24T18:39:37.179Z,0.82
2022-11-24T18:42:39.831Z,0.81
2022-11-24T18:45:42.428Z,0.82
2022-11-24T18:48:45.383Z,0.80
2022-11-24T18:51:47.913Z,0.78
2022-11-24T18:54:50.169Z,0.77
2022-11-24T18:57:52.435Z,0.80
2022-11-24T19:00:55.133Z,0.78
2022-11-24T19:03:59.480Z,0.78
2022-11-24T19:07:01.609Z,0.80
2022-11-24T19:10:04.330Z,0.77
2022-11-24T19:13:06.436Z,0.82
2022-11-24T19:16:12.773Z,0.80
2022-11-24T19:19:16.495Z,0.78
2022-11-24T19:22:19.008Z,0.83
2022-11-24T19:25:21.556Z,0.88
2022-11-24T19:28:24.566Z,0.86
2022-11-24T19:31:26.940Z,0.80
2022-11-24T19:34:29.554Z,0.83
2022-11-24T19:37:31.712Z,0.87
2022-11-24T19:40:34.095Z,0.84
2022-11-24T19:43:38.071Z,0.78
2022-11-24T19:46:41.219Z,0.86
2022-11-24T19:49:43.426Z,0.82
2022-11-24T19:52:47.846Z,0.81
2022-11-24T19:55:50.064Z,0.81
2022-11-24T19:58:53.970Z,0.64
2022-11-24T20:01:57.901Z,0.67
2022-11-24T20:05:00.766Z,0.70
2022-11-24T20:08:09.612Z,0.53
2022-11-24T20:11:17.419Z,0.42
2022-11-24T20:14:20.643Z,0.48
2022-11-24T20:17:25.946Z,0.49
2022-11-24T20:20:28.266Z,0.59
2022-11-24T20:23:30.811Z,0.62
2022-11-24T20:26:36.603Z,0.62
2022-11-24T20:29:45.216Z,0.68
2022-11-24T20:32:48.956Z,0.73
2022-11-24T20:35:51.447Z,0.69
2022-11-24T20:38:54.312Z,0.67
2022-11-24T20:41:56.914Z,0.68
2022-11-24T20:45:01.340Z,0.68
2022-11-24T20:48:05.731Z,0.64
2022-11-24T20:51:14.547Z,0.57
2022-11-24T20:54:24.511Z,0.61
2022-11-24T20:57:26.661Z,0.54
2022-11-24T21:00:29.275Z,0.43
2022-11-24T21:03:31.726Z,0.48
2022-11-24T21:06:35.605Z,0.51
2022-11-24T21:09:38.733Z,0.53
2022-11-24T21:12:40.997Z,0.53
2022-11-24T21:15:43.442Z,0.56
2022-11-24T21:18:47.804Z,0.64
2022-11-24T21:21:50.402Z,0.65
2022-11-24T21:24:52.903Z,0.68
2022-11-24T21:27:55.098Z,0.66
2022-11-24T21:31:05.805Z,0.62
2022-11-24T21:34:09.054Z,0.64
2022-11-24T21:37:11.631Z,0.65
2022-11-24T21:40:15.206Z,0.59
2022-11-24T21:43:17.808Z,0.55
2022-11-24T21:46:20.070Z,0.47
2022-11-24T21:49:22.710Z,0.41
2022-11-24T21:52:25.110Z,0.50
2022-11-24T21:55:27.747Z,0.56
2022-11-24T21:58:30.113Z,0.54
2022-11-24T22:01:32.937Z,0.62
2022-11-24T22:04:35.509Z,0.65
2022-11-24T22:07:38.083Z,0.62
2022-11-24T22:10:40.207Z,0.61
2022-11-24T22:13:43.667Z,0.66
2022-11-24T22:16:46.260Z,0.68
2022-11-24T22:19:48.616Z,0.66
2022-11-24T22:22:50.586Z,0.67
2022-11-24T22:25:52.862Z,0.64
2022-11-24T22:28:55.863Z,0.67
2022-11-24T22:31:58.506Z,0.69
2022-11-24T22:35:00.648Z,0.71
2022-11-24T22:38:03.083Z,0.74
2022-11-24T22:41:16.533Z,0.65
2022-11-24T22:44:18.833Z,0.64
2022-11-24T22:47:20.929Z,0.60
2022-11-24T22:50:23.293Z,0.58
2022-11-24T22:53:25.346Z,0.61
2022-11-24T22:56:28.258Z,0.59
2022-11-24T22:59:30.390Z,0.49
2022-11-24T23:02:32.807Z,0.48
2022-11-24T23:05:35.123Z,0.50
2022-11-24T23:08:37.616Z,0.59
2022-11-24T23:11:40.902Z,0.64
2022-11-24T23:14:43.234Z,0.58
2022-11-24T23:17:45.350Z,0.56
2022-11-24T23:20:47.975Z,0.58
2022-11-24T23:23:50.886Z,0.48
2022-11-24T23:26:53.388Z,0.51
2022-11-24T23:29:55.511Z,0.55
2022-11-24T23:32:57.850Z,0.63
2022-11-24T23:36:02.194Z,0.62
2022-11-24T23:39:10.848Z,0.58
2022-11-24T23:42:13.365Z,0.58
2022-11-24T23:45:15.690Z,0.64
2022-11-24T23:48:18.000Z,0.64
2022-11-24T23:51:23.451Z,0.60
2022-11-24T23:57:45.221Z,0.62
